Time;durP1;ratioP1;P1;durP2;ratioP2;P2;SDS_P1;SDS_P2;PMS_P1;PMS_P2;Temp;Humidity;BMP_temperature;BMP_pressure;BME280_temperature;BME280_humidity;BME280_pressure;Samples;Min_cycle;Max_cycle;Signal;HPM_P1;HPM_P2
2022/01/04 00:02:08;;;;;;;9.95;8.15;;;;;;;6.18;78.63;95054.13;5059863;28;20207;-73
2022/01/04 00:04:35;;;;;;;13.45;8.48;;;;;;;5.92;78.92;95052.03;5060151;28;20206;-73
2022/01/04 00:07:03;;;;;;;13.02;7.75;;;;;;;5.72;79.79;95049.75;5061086;28;20707;-73
2022/01/04 00:09:30;;;;;;;9.18;7.97;;;;;;;5.85;79.58;95052.94;5059392;28;20219;-74
2022/01/04 00:13:21;;;;;;;12.55;7.22;;;;;;;6.50;81.94;95051.03;5066189;28;20630;-74
2022/01/04 00:14:45;;;;;;;8.70;7.22;;;;;;;7.66;83.51;95043.63;5068162;28;20201;-73
2022/01/04 00:17:12;;;;;;;20.05;7.70;;;;;;;8.22;77.59;95038.91;5069360;28;20194;-72
2022/01/04 00:19:39;;;;;;;12.35;8.48;;;;;;;7.56;73.57;95047.22;5069092;28;20226;-73
2022/01/04 00:22:08;;;;;;;10.80;7.93;;;;;;;7.54;72.78;95059.06;5059618;28;20244;-73
2022/01/04 00:24:35;;;;;;;11.20;8.02;;;;;;;6.84;74.81;95061.34;5055302;28;20202;-72
2022/01/04 00:27:02;;;;;;;8.90;6.85;;;;;;;6.64;75.89;95059.19;5057013;28;20238;-72
2022/01/04 00:29:29;;;;;;;9.82;6.68;;;;;;;6.48;75.63;95067.88;5058266;28;20533;-73
2022/01/04 00:31:56;;;;;;;12.98;7.80;;;;;;;5.95;77.89;95067.09;5064416;28;20190;-72
2022/01/04 00:34:22;;;;;;;11.52;7.85;;;;;;;6.00;78.04;95077.94;5065941;28;20251;-73
2022/01/04 00:36:50;;;;;;;13.43;9.05;;;;;;;5.80;79.73;95090.00;5066184;28;20198;-72
2022/01/04 00:39:18;;;;;;;16.48;8.60;;;;;;;6.16;78.08;95077.72;5065946;28;20221;-73
2022/01/04 00:41:45;;;;;;;14.18;8.82;;;;;;;6.28;77.65;95100.22;5066795;28;20230;-72
2022/01/04 00:44:11;;;;;;;16.88;9.40;;;;;;;5.92;78.76;95094.91;5068857;28;20256;-72
2022/01/04 00:46:38;;;;;;;13.63;8.85;;;;;;;6.12;77.61;95089.53;5067861;28;20240;-72
2022/01/04 00:49:10;;;;;;;14.35;9.52;;;;;;;6.07;77.62;95092.13;5068549;28;20194;-72
2022/01/04 00:51:38;;;;;;;18.08;10.88;;;;;;;6.19;76.93;95085.25;5068987;28;20660;-73
2022/01/04 00:54:06;;;;;;;16.67;8.85;;;;;;;5.70;78.24;95080.88;5065938;28;20190;-72
2022/01/04 00:56:35;;;;;;;13.35;9.85;;;;;;;5.74;79.31;95073.25;5067564;28;20198;-72
2022/01/04 00:59:02;;;;;;;17.35;10.75;;;;;;;5.72;78.62;95066.56;5069306;28;20720;-72
2022/01/04 01:01:29;;;;;;;15.23;9.90;;;;;;;5.64;78.19;95058.31;5069583;28;20252;-73
2022/01/04 01:03:56;;;;;;;16.13;9.60;;;;;;;5.66;79.02;95066.69;5069255;28;20195;-72
2022/01/04 01:06:23;;;;;;;13.35;9.63;;;;;;;5.65;78.33;95067.53;5069155;28;20195;-72
2022/01/04 01:08:50;;;;;;;15.48;9.70;;;;;;;5.71;78.08;95058.19;5072958;28;20202;-73
2022/01/04 01:11:18;;;;;;;14.75;10.95;;;;;;;5.67;78.20;95064.13;5073327;28;20211;-72
2022/01/04 01:13:46;;;;;;;16.45;9.07;;;;;;;5.66;77.87;95054.91;5073075;28;20198;-73
2022/01/04 01:16:13;;;;;;;14.73;9.95;;;;;;;5.20;80.23;95058.94;5073421;28;20198;-73
2022/01/04 01:18:40;;;;;;;20.48;10.38;;;;;;;5.40;79.95;95060.31;5073141;28;20279;-73
2022/01/04 01:21:08;;;;;;;18.13;10.77;;;;;;;5.14;80.04;95059.84;5072880;28;20586;-73
2022/01/04 01:23:35;;;;;;;19.92;11.70;;;;;;;5.34;79.45;95057.88;5073190;28;20198;-72
2022/01/04 01:26:03;;;;;;;20.15;11.82;;;;;;;5.55;79.10;95055.91;5073312;28;20198;-72
2022/01/04 01:28:31;;;;;;;16.95;12.02;;;;;;;5.71;78.85;95048.09;5072978;28;20191;-72
2022/01/04 01:31:00;;;;;;;26.75;13.02;;;;;;;5.68;78.91;95054.91;5073243;28;20293;-72
2022/01/04 01:33:28;;;;;;;20.15;12.85;;;;;;;5.15;80.60;95051.41;5072911;28;20206;-72
2022/01/04 01:35:55;;;;;;;19.52;11.38;;;;;;;4.94;81.17;95046.66;5072713;28;20784;-72
2022/01/04 01:38:22;;;;;;;17.80;11.70;;;;;;;5.26;80.32;95052.09;5073080;28;20276;-72
2022/01/04 01:40:49;;;;;;;20.65;11.68;;;;;;;5.42;80.16;95051.06;5073166;28;20234;-72
2022/01/04 01:43:16;;;;;;;26.65;13.25;;;;;;;5.65;79.51;95059.97;5072784;28;20252;-73
2022/01/04 01:45:44;;;;;;;26.42;14.52;;;;;;;5.60;79.05;95065.06;5072819;28;20673;-73
2022/01/04 01:48:13;;;;;;;21.55;13.10;;;;;;;5.33;79.75;95055.38;5073030;28;20257;-73
2022/01/04 01:50:40;;;;;;;19.15;12.93;;;;;;;5.29;79.87;95062.13;5072567;28;20743;-73
2022/01/04 01:53:07;;;;;;;19.90;13.05;;;;;;;4.77;81.02;95056.91;5072663;28;20244;-72
2022/01/04 01:55:33;;;;;;;19.83;12.05;;;;;;;4.39;84.00;95063.19;5072599;28;20281;-73
2022/01/04 01:58:00;;;;;;;24.85;12.63;;;;;;;4.71;83.13;95054.44;5072247;28;20195;-73
2022/01/04 02:00:29;;;;;;;20.70;12.75;;;;;;;5.11;81.35;95047.28;5072373;28;20240;-73
2022/01/04 02:02:57;;;;;;;22.75;13.13;;;;;;;5.14;81.15;95049.75;5072578;28;20252;-73
2022/01/04 02:05:25;;;;;;;19.75;13.40;;;;;;;5.08;80.77;95044.78;5072296;28;20283;-73
2022/01/04 02:07:52;;;;;;;23.42;14.63;;;;;;;5.02;80.89;95045.69;5071916;28;20596;-73
2022/01/04 02:10:19;;;;;;;17.38;11.68;;;;;;;5.21;80.25;95053.00;5072006;28;20665;-73
2022/01/04 02:12:47;;;;;;;20.38;11.98;;;;;;;5.23;79.03;95048.78;5070693;28;20742;-73
2022/01/04 02:15:17;;;;;;;20.25;11.90;;;;;;;5.01;80.08;95041.50;5072159;28;20290;-73
2022/01/04 02:17:44;;;;;;;17.05;11.98;;;;;;;4.93;80.19;95047.50;5072049;28;20661;-72
2022/01/04 02:20:13;;;;;;;18.20;11.45;;;;;;;4.71;81.24;95052.75;5072129;28;20270;-72
2022/01/04 02:22:41;;;;;;;24.38;11.20;;;;;;;4.47;82.19;95042.97;5072233;28;20198;-72
2022/01/04 02:25:09;;;;;;;15.02;10.57;;;;;;;4.44;82.69;95048.06;5071860;28;20632;-72
2022/01/04 02:27:38;;;;;;;18.95;10.50;;;;;;;4.52;82.36;95036.22;5071874;28;20194;-72
2022/01/04 02:30:06;;;;;;;14.13;9.73;;;;;;;4.64;81.94;95045.31;5072068;28;20199;-72
2022/01/04 02:32:33;;;;;;;12.68;9.20;;;;;;;4.56;82.21;95045.41;5071272;28;20190;-72
2022/01/04 02:35:00;;;;;;;14.52;10.02;;;;;;;4.51;82.47;95047.13;5069849;28;20553;-72
2022/01/04 02:37:30;;;;;;;18.88;10.90;;;;;;;4.26;83.65;95045.69;5070092;28;20821;-72
2022/01/04 02:39:57;;;;;;;17.90;12.05;;;;;;;4.23;84.17;95056.63;5069374;28;20252;-72
2022/01/04 02:42:24;;;;;;;23.38;11.70;;;;;;;4.30;83.94;95043.16;5070117;28;20252;-72
2022/01/04 02:44:51;;;;;;;20.02;11.30;;;;;;;4.44;83.92;95038.00;5069899;28;20197;-72
2022/01/04 02:47:18;;;;;;;13.57;10.45;;;;;;;4.47;83.20;95042.97;5069673;28;20647;-72
2022/01/04 02:49:46;;;;;;;21.08;11.63;;;;;;;4.54;82.95;95042.06;5068117;28;20645;-72
2022/01/04 02:52:13;;;;;;;20.55;10.85;;;;;;;4.56;82.34;95035.31;5069937;28;20198;-72
2022/01/04 02:54:41;;;;;;;24.52;13.23;;;;;;;4.57;82.72;95037.00;5069171;28;20649;-71
2022/01/04 02:57:08;;;;;;;21.50;13.43;;;;;;;4.68;82.20;95032.69;5069336;28;20267;-72
2022/01/04 02:59:34;;;;;;;24.85;14.40;;;;;;;4.72;82.13;95031.78;5069250;28;20712;-72
2022/01/04 03:02:01;;;;;;;27.20;15.43;;;;;;;4.76;82.01;95023.34;5069107;28;20244;-71
2022/01/04 03:04:28;;;;;;;26.45;15.05;;;;;;;4.78;81.29;95021.66;5069414;28;20240;-72
2022/01/04 03:06:55;;;;;;;35.05;16.23;;;;;;;4.98;80.97;95028.13;5069603;28;20661;-71
2022/01/04 03:09:23;;;;;;;26.40;15.27;;;;;;;4.81;81.24;95014.91;5070844;28;20191;-71
2022/01/04 03:11:51;;;;;;;29.42;16.52;;;;;;;4.62;81.76;95015.13;5071386;28;20483;-71
2022/01/04 03:14:18;;;;;;;30.40;16.20;;;;;;;4.08;84.93;95022.41;5071140;28;20198;-71
2022/01/04 03:16:45;;;;;;;32.78;16.60;;;;;;;4.01;86.10;95035.03;5071094;28;20201;-71
2022/01/04 03:19:12;;;;;;;32.80;17.25;;;;;;;4.31;84.89;95026.38;5069586;28;20728;-72
2022/01/04 03:21:41;;;;;;;29.58;16.65;;;;;;;4.63;83.12;95028.56;5070121;28;20256;-71
2022/01/04 03:24:11;;;;;;;31.60;17.75;;;;;;;4.41;83.43;95028.78;5071006;28;20272;-72
2022/01/04 03:26:38;;;;;;;27.38;16.05;;;;;;;4.59;82.88;95019.38;5070947;28;20694;-72
2022/01/04 03:29:08;;;;;;;28.27;15.52;;;;;;;4.82;82.32;95022.44;5071039;28;20339;-72
2022/01/04 03:31:35;;;;;;;26.30;14.70;;;;;;;4.73;81.78;95020.84;5070819;28;20256;-72
2022/01/04 03:34:02;;;;;;;34.65;18.17;;;;;;;4.02;83.69;95022.44;5070844;28;20206;-71
2022/01/04 03:36:29;;;;;;;35.72;17.42;;;;;;;4.15;83.71;95033.25;5070915;28;20272;-72
2022/01/04 03:38:57;;;;;;;29.92;16.90;;;;;;;3.96;84.87;95037.59;5070688;28;20225;-72
2022/01/04 03:41:26;;;;;;;25.75;16.35;;;;;;;4.01;84.40;95013.22;5070641;28;20234;-72
2022/01/04 03:43:53;;;;;;;27.92;16.58;;;;;;;4.31;83.60;95038.94;5070273;28;20562;-72
2022/01/04 03:46:21;;;;;;;29.48;17.17;;;;;;;4.43;82.72;95023.75;5069303;28;20191;-72
2022/01/04 03:48:48;;;;;;;33.85;17.23;;;;;;;4.72;81.65;95036.81;5068835;28;20198;-72
2022/01/04 03:51:15;;;;;;;34.03;17.98;;;;;;;4.58;81.29;95038.66;5070630;28;20191;-73
2022/01/04 03:53:42;;;;;;;29.75;16.30;;;;;;;4.64;81.46;95042.81;5070614;28;20620;-72
2022/01/04 03:56:09;;;;;;;39.03;17.90;;;;;;;4.34;81.41;95054.03;5070526;28;20638;-72
2022/01/04 03:58:36;;;;;;;27.77;17.88;;;;;;;4.10;83.05;95055.91;5070193;28;20245;-73
2022/01/04 04:01:03;;;;;;;30.33;17.10;;;;;;;4.08;83.04;95051.75;5070306;28;20236;-72
2022/01/04 04:03:32;;;;;;;30.23;16.10;;;;;;;4.03;83.59;95035.84;5070360;28;20661;-73
2022/01/04 04:06:00;;;;;;;29.38;17.17;;;;;;;4.20;82.89;95040.75;5070385;28;20202;-72
2022/01/04 04:08:27;;;;;;;32.63;16.90;;;;;;;3.93;83.69;95042.66;5069419;28;20194;-72
2022/01/04 04:10:54;;;;;;;25.70;16.30;;;;;;;4.22;82.28;95041.53;5068275;28;20267;-72
2022/01/04 04:13:21;;;;;;;28.25;15.63;;;;;;;4.23;81.73;95043.22;5068170;28;20198;-72
2022/01/04 04:15:47;;;;;;;30.05;17.17;;;;;;;4.28;82.10;95038.97;5067916;28;20564;-72
2022/01/04 04:18:16;;;;;;;25.33;16.05;;;;;;;4.04;82.44;95048.41;5068075;28;20199;-72
2022/01/04 04:20:45;;;;;;;23.83;15.88;;;;;;;3.51;84.83;95045.47;5068249;28;20237;-72
2022/01/04 04:23:11;;;;;;;33.15;16.15;;;;;;;2.96;87.87;95051.66;5068535;28;20243;-72
2022/01/04 04:25:38;;;;;;;30.50;17.15;;;;;;;3.33;87.50;95043.94;5070361;28;20271;-72
2022/01/04 04:28:05;;;;;;;25.08;16.15;;;;;;;3.82;85.06;95046.94;5069801;28;20194;-72
2022/01/04 04:30:32;;;;;;;24.25;15.65;;;;;;;4.14;83.19;95046.66;5070090;28;20248;-72
2022/01/04 04:32:59;;;;;;;27.00;16.33;;;;;;;4.12;82.80;95050.03;5074307;28;20252;-72
2022/01/04 04:35:26;;;;;;;32.63;16.88;;;;;;;4.05;83.26;95052.59;5073953;28;20709;-72
2022/01/04 04:37:54;;;;;;;24.70;15.45;;;;;;;4.05;82.26;95057.63;5073855;28;20559;-72
2022/01/04 04:40:21;;;;;;;28.15;14.90;;;;;;;3.39;84.40;95069.84;5073913;28;20708;-72
2022/01/04 04:42:48;;;;;;;30.08;17.92;;;;;;;3.08;87.01;95064.16;5073674;28;20202;-71
2022/01/04 04:45:15;;;;;;;52.60;26.38;;;;;;;3.33;86.58;95077.41;5073730;28;20673;-72
2022/01/04 04:47:42;;;;;;;35.72;17.45;;;;;;;3.47;85.05;95077.31;5074053;28;20202;-72
2022/01/04 04:50:09;;;;;;;35.05;19.10;;;;;;;3.58;85.41;95069.72;5073711;28;20619;-72
2022/01/04 04:52:36;;;;;;;36.90;19.48;;;;;;;3.53;85.76;95062.22;5073562;28;20683;-72
2022/01/04 04:55:05;;;;;;;32.88;18.50;;;;;;;3.47;85.40;95066.44;5073792;28;20251;-72
2022/01/04 04:57:32;;;;;;;29.57;16.70;;;;;;;3.76;84.75;95074.63;5073355;28;20236;-72
2022/01/04 04:59:59;;;;;;;30.85;18.17;;;;;;;3.65;84.64;95076.38;5073281;28;20233;-72
2022/01/04 05:02:26;;;;;;;35.70;16.85;;;;;;;3.54;85.24;95083.16;5073469;28;20290;-72
2022/01/04 05:04:53;;;;;;;27.45;16.50;;;;;;;3.60;85.11;95083.94;5073343;28;20206;-72
2022/01/04 05:07:19;;;;;;;29.02;16.30;;;;;;;3.86;84.55;95078.75;5073014;28;20673;-72
2022/01/04 05:09:46;;;;;;;30.20;16.38;;;;;;;3.59;86.59;95086.47;5073340;28;20267;-72
2022/01/04 05:12:14;;;;;;;29.38;17.63;;;;;;;3.56;88.30;95076.44;5073164;28;20214;-72
2022/01/04 05:14:45;;;;;;;33.25;17.85;;;;;;;3.37;88.67;95078.22;5073141;28;20194;-72
2022/01/04 05:17:12;;;;;;;31.58;15.85;;;;;;;3.31;89.61;95081.59;5073435;28;20210;-72
2022/01/04 05:19:39;;;;;;;51.73;27.33;;;;;;;3.37;89.52;95084.09;5072734;28;20774;-72
2022/01/04 05:22:07;;;;;;;64.95;32.20;;;;;;;3.51;88.07;95073.13;5073145;28;20195;-73
2022/01/04 05:24:34;;;;;;;40.15;22.38;;;;;;;3.86;86.82;95062.81;5072731;28;20191;-72
2022/01/04 05:27:01;;;;;;;37.90;17.73;;;;;;;3.96;86.05;95065.22;5072663;28;20264;-71
2022/01/04 05:29:29;;;;;;;30.20;17.35;;;;;;;4.07;84.92;95060.97;5072764;28;20190;-72
2022/01/04 05:31:56;;;;;;;32.28;19.20;;;;;;;3.96;84.82;95051.88;5072913;28;20692;-72
2022/01/04 05:34:23;;;;;;;32.17;18.40;;;;;;;3.70;86.13;95065.47;5072586;28;20248;-72
2022/01/04 05:36:50;;;;;;;33.72;19.15;;;;;;;3.74;86.68;95056.19;5072812;28;20194;-71
2022/01/04 05:39:17;;;;;;;39.97;20.23;;;;;;;3.80;86.36;95061.19;5072691;28;20726;-72
2022/01/04 05:41:44;;;;;;;41.35;22.80;;;;;;;3.92;85.65;95060.28;5072805;28;20226;-72
2022/01/04 05:44:11;;;;;;;43.67;21.10;;;;;;;4.02;85.01;95061.84;5071681;28;20205;-72
2022/01/04 05:46:39;;;;;;;48.95;26.48;;;;;;;3.82;85.39;95062.00;5071148;28;20244;-72
2022/01/04 05:49:06;;;;;;;51.77;26.50;;;;;;;3.58;87.06;95062.19;5072610;28;20244;-72
2022/01/04 05:51:33;;;;;;;66.93;34.45;;;;;;;3.56;87.08;95054.66;5072479;28;20275;-72
2022/01/04 05:54:00;;;;;;;62.33;33.90;;;;;;;3.72;86.97;95048.66;5072449;28;20195;-72
2022/01/04 05:56:26;;;;;;;62.50;32.78;;;;;;;3.57;87.53;95058.84;5070496;28;20202;-73
2022/01/04 05:58:53;;;;;;;59.17;31.67;;;;;;;3.47;87.89;95056.38;5070325;28;20726;-72
2022/01/04 06:01:20;;;;;;;66.10;33.07;;;;;;;3.51;88.79;95058.88;5069666;28;20483;-72
2022/01/04 06:03:51;;;;;;;72.50;35.72;;;;;;;3.78;87.11;95052.81;5070094;28;20244;-71
2022/01/04 06:06:18;;;;;;;72.18;36.25;;;;;;;3.85;86.06;95056.97;5069963;28;20548;-71
2022/01/04 06:08:45;;;;;;;60.50;32.85;;;;;;;4.01;84.65;95050.13;5070507;28;20205;-72
2022/01/04 06:11:30;;;;;;;55.92;29.02;;;;;;;4.56;83.75;95059.66;5070083;28;20199;-72
2022/01/04 06:16:41;;;;;;;54.83;27.73;;;;;;;4.54;82.86;95056.31;5071933;28;20201;-72
2022/01/04 06:19:10;;;;;;;47.53;26.20;;;;;;;4.52;81.99;95058.84;5072007;28;20194;-72
2022/01/04 06:21:36;;;;;;;34.15;23.30;;;;;;;4.16;82.57;95062.56;5071894;28;20226;-72
2022/01/04 06:24:04;;;;;;;40.83;21.88;;;;;;;4.15;83.22;95057.56;5072067;28;20190;-72
2022/01/04 06:26:30;;;;;;;47.90;25.52;;;;;;;4.24;82.15;95044.88;5071871;28;20195;-72
2022/01/04 06:28:57;;;;;;;47.92;25.23;;;;;;;4.05;83.65;95054.28;5071145;28;20203;-71
2022/01/04 06:31:25;;;;;;;57.78;29.45;;;;;;;3.94;84.20;95049.34;5071594;28;20289;-71
2022/01/04 06:33:52;;;;;;;59.40;30.90;;;;;;;3.67;85.36;95052.09;5071761;28;20275;-71
2022/01/04 06:36:21;;;;;;;66.60;31.47;;;;;;;4.17;84.71;95043.28;5071547;28;20218;-71
2022/01/04 06:38:47;;;;;;;66.60;28.73;;;;;;;4.40;82.55;95038.88;5071411;28;20209;-71
2022/01/04 06:41:15;;;;;;;57.50;29.20;;;;;;;4.65;82.05;95037.75;5071634;28;20234;-73
2022/01/04 06:43:41;;;;;;;60.78;30.73;;;;;;;4.70;80.96;95048.56;5071349;28;20252;-71
2022/01/04 06:46:11;;;;;;;61.88;29.73;;;;;;;4.94;80.71;95044.13;5071171;28;20217;-71
2022/01/04 06:48:39;;;;;;;60.47;29.00;;;;;;;5.17;78.81;95049.72;5071111;28;20190;-71
2022/01/04 06:51:06;;;;;;;63.95;29.00;;;;;;;5.16;78.57;95047.22;5070926;28;20229;-70
2022/01/04 06:53:34;;;;;;;53.13;29.25;;;;;;;4.94;79.44;95036.59;5071031;28;20225;-71
2022/01/04 06:56:01;;;;;;;59.13;29.80;;;;;;;5.01;79.29;95045.72;5071035;28;20240;-72
2022/01/04 06:58:27;;;;;;;66.43;33.88;;;;;;;5.12;87.90;95042.22;5071165;28;20198;-74
2022/01/04 07:00:54;;;;;;;66.05;35.42;;;;;;;6.07;90.40;95043.38;5071091;28;20284;-71
2022/01/04 07:03:21;;;;;;;71.35;35.03;;;;;;;6.36;79.56;95047.91;5071078;28;20251;-71
2022/01/04 07:05:47;;;;;;;78.68;38.75;;;;;;;6.21;75.50;95048.16;5071301;28;20247;-71
2022/01/04 07:08:14;;;;;;;59.45;34.00;;;;;;;6.09;75.61;95054.28;5070688;28;20198;-71
2022/01/04 07:10:42;;;;;;;78.30;37.95;;;;;;;6.23;74.52;95064.13;5070587;28;20274;-72
2022/01/04 07:13:10;;;;;;;94.90;38.33;;;;;;;6.60;73.32;95062.63;5070610;28;20194;-72
2022/01/04 07:15:37;;;;;;;67.82;32.22;;;;;;;7.07;71.65;95061.72;5070450;28;20531;-72
2022/01/04 07:18:03;;;;;;;86.47;39.40;;;;;;;8.09;68.36;95061.16;5070875;28;20248;-72
2022/01/04 07:20:30;;;;;;;151.15;53.45;;;;;;;8.55;65.47;95045.69;5070411;28;20255;-73
2022/01/04 07:22:57;;;;;;;66.50;30.35;;;;;;;9.20;63.52;95055.72;5070537;28;20194;-73
2022/01/04 07:25:24;;;;;;;49.13;25.70;;;;;;;9.51;61.91;95051.44;5070576;28;20194;-73
2022/01/04 07:27:52;;;;;;;46.80;24.83;;;;;;;9.98;60.54;95049.16;5070516;28;20676;-73
2022/01/04 07:30:19;;;;;;;46.67;26.80;;;;;;;10.20;59.75;95045.06;5071045;28;20682;-73
2022/01/04 07:32:46;;;;;;;41.83;26.13;;;;;;;9.92;58.98;95049.34;5070892;28;20195;-73
2022/01/04 07:35:13;;;;;;;46.08;25.85;;;;;;;9.81;59.86;95047.16;5070458;28;20214;-73
2022/01/04 07:37:40;;;;;;;40.15;23.63;;;;;;;9.08;61.43;95051.84;5069984;28;20198;-73
2022/01/04 07:40:08;;;;;;;38.65;21.67;;;;;;;8.54;63.71;95049.09;5069339;28;20669;-72
2022/01/04 07:42:35;;;;;;;44.10;24.02;;;;;;;7.54;68.23;95046.41;5070225;28;20668;-72
2022/01/04 07:45:03;;;;;;;34.45;20.40;;;;;;;7.55;68.21;95040.50;5070639;28;20206;-72
2022/01/04 07:47:31;;;;;;;35.47;18.58;;;;;;;7.91;67.04;95034.59;5070164;28;20210;-73
2022/01/04 07:49:58;;;;;;;40.47;21.50;;;;;;;7.79;66.65;95039.94;5069986;28;20259;-72
2022/01/04 07:52:25;;;;;;;37.53;20.00;;;;;;;7.53;67.57;95049.81;5070080;28;20289;-73
2022/01/04 07:54:53;;;;;;;54.03;25.20;;;;;;;7.62;68.07;95049.63;5070518;28;20205;-74
2022/01/04 07:57:20;;;;;;;47.80;24.73;;;;;;;7.79;67.61;95050.06;5068802;28;20198;-74
2022/01/04 07:59:47;;;;;;;97.53;43.58;;;;;;;8.20;72.27;95042.28;5068521;28;20194;-76
2022/01/04 08:02:16;;;;;;;111.95;53.00;;;;;;;8.82;66.62;95037.34;5068070;28;20222;-73
2022/01/04 08:04:43;;;;;;;35.53;18.73;;;;;;;9.07;63.99;95031.59;5068169;28;20197;-74
2022/01/04 08:07:10;;;;;;;30.90;18.30;;;;;;;8.79;64.68;95029.84;5067643;28;20202;-73
2022/01/04 08:09:36;;;;;;;24.38;16.13;;;;;;;9.45;63.50;95033.84;5068505;28;20252;-74
2022/01/04 08:12:04;;;;;;;25.70;14.05;;;;;;;10.36;60.79;95039.50;5069012;28;20202;-73
2022/01/04 08:14:30;;;;;;;38.35;19.15;;;;;;;11.12;57.99;95037.69;5070092;28;20194;-74
2022/01/04 08:16:57;;;;;;;29.70;15.85;;;;;;;11.12;58.35;95031.78;5070245;28;20190;-73
2022/01/04 08:19:25;;;;;;;31.45;15.95;;;;;;;11.14;57.71;95035.06;5069695;28;20194;-73
2022/01/04 08:21:52;;;;;;;24.33;15.77;;;;;;;12.03;55.70;95035.13;5069637;28;20647;-73
2022/01/04 08:24:20;;;;;;;21.13;14.52;;;;;;;12.25;54.67;95024.03;5070322;28;20194;-73
2022/01/04 08:26:47;;;;;;;18.92;13.65;;;;;;;12.87;52.48;95023.09;5070077;28;20576;-73
2022/01/04 08:29:14;;;;;;;20.92;14.02;;;;;;;13.77;50.39;95021.66;5069457;28;20194;-73
2022/01/04 08:31:40;;;;;;;23.20;14.32;;;;;;;13.69;50.25;95022.91;5070009;28;20198;-73
2022/01/04 08:34:07;;;;;;;20.08;13.65;;;;;;;12.67;52.13;95020.56;5069709;28;20272;-73
2022/01/04 08:36:37;;;;;;;28.48;16.00;;;;;;;12.00;54.69;95018.25;5069909;28;20264;-73
2022/01/04 08:39:04;;;;;;;22.40;14.07;;;;;;;10.51;58.80;95011.88;5070281;28;20190;-73
2022/01/04 08:41:31;;;;;;;23.45;15.23;;;;;;;10.02;60.73;95004.19;5069507;28;20708;-73
2022/01/04 08:43:58;;;;;;;22.40;14.25;;;;;;;10.29;61.06;95010.94;5069830;28;20204;-73
2022/01/04 08:46:26;;;;;;;18.10;14.15;;;;;;;10.50;60.14;95007.69;5069935;28;20280;-73
2022/01/04 08:48:52;;;;;;;22.15;14.38;;;;;;;10.43;60.50;95013.84;5069777;28;20241;-73
2022/01/04 08:51:19;;;;;;;23.85;15.10;;;;;;;9.85;62.34;95017.44;5069967;28;20199;-73
2022/01/04 08:53:47;;;;;;;21.73;14.98;;;;;;;10.30;61.44;95009.22;5069987;28;20194;-72
2022/01/04 08:56:17;;;;;;;30.05;15.68;;;;;;;10.49;60.93;95010.25;5069547;28;20248;-73
2022/01/04 08:58:43;;;;;;;27.35;16.02;;;;;;;11.09;59.48;95016.63;5069825;28;20205;-73
2022/01/04 09:01:10;;;;;;;36.55;21.58;;;;;;;11.01;58.44;95014.34;5060950;28;20281;-73
2022/01/04 09:03:37;;;;;;;31.42;20.60;;;;;;;11.55;57.88;95006.41;5047621;28;20245;-73
2022/01/04 09:06:04;;;;;;;38.40;22.50;;;;;;;11.86;57.45;94997.63;5048006;28;20245;-72
2022/01/04 09:08:30;;;;;;;42.03;25.92;;;;;;;11.32;58.01;94998.81;5049406;28;20198;-73
2022/01/04 09:10:58;;;;;;;49.03;28.10;;;;;;;11.59;58.23;94999.47;5049519;28;20290;-72
2022/01/04 09:13:31;;;;;;;52.53;27.45;;;;;;;11.76;56.89;94993.72;5049505;28;20195;-73
2022/01/04 09:18:54;;;;;;;47.90;26.25;;;;;;;11.99;57.15;94980.94;4987529;28;20361;-72
2022/01/04 09:21:24;;;;;;;47.05;25.42;;;;;;;12.32;55.40;94972.81;5035994;28;20227;-73
2022/01/04 09:23:53;;;;;;;45.92;25.38;;;;;;;12.17;55.66;94964.91;5050893;28;20290;-73
2022/01/04 09:26:22;;;;;;;49.20;24.85;;;;;;;11.66;57.30;94959.31;5052500;28;20195;-73
2022/01/04 09:28:49;;;;;;;42.58;24.48;;;;;;;11.72;56.54;94949.75;5052351;28;20253;-73
2022/01/04 09:31:16;;;;;;;37.42;21.33;;;;;;;12.00;55.88;94946.13;5052798;28;20245;-74
2022/01/04 09:33:43;;;;;;;41.70;20.80;;;;;;;11.83;56.28;94944.25;5052215;28;20191;-73
2022/01/04 09:36:10;;;;;;;38.42;21.00;;;;;;;11.06;58.53;94937.91;5052740;28;20709;-73
2022/01/04 09:38:37;;;;;;;28.90;19.10;;;;;;;11.23;58.74;94925.38;5052600;28;20195;-74
2022/01/04 09:41:04;;;;;;;26.33;17.55;;;;;;;11.16;58.59;94931.56;5052606;28;20261;-74
2022/01/04 09:43:32;;;;;;;24.02;16.63;;;;;;;10.81;60.01;94921.03;5052698;28;20210;-73
2022/01/04 09:46:00;;;;;;;28.50;17.38;;;;;;;11.01;60.88;94916.91;5052545;28;20231;-73
2022/01/04 09:48:27;;;;;;;25.92;16.98;;;;;;;11.00;60.24;94920.31;5052908;28;20222;-74
2022/01/04 09:50:56;;;;;;;38.08;17.85;;;;;;;11.49;59.52;94912.47;5052409;28;20199;-74
2022/01/04 09:53:24;;;;;;;28.25;16.35;;;;;;;11.69;58.97;94910.84;5052042;28;20282;-74
2022/01/04 09:55:52;;;;;;;32.25;19.00;;;;;;;11.67;58.67;94899.91;5050612;28;20395;-74
2022/01/04 09:58:20;;;;;;;30.00;17.98;;;;;;;11.67;58.35;94897.34;5050361;28;20249;-73
2022/01/04 10:00:50;;;;;;;27.67;17.60;;;;;;;11.40;58.84;94879.75;5050621;28;20191;-73
2022/01/04 10:03:18;;;;;;;23.20;16.40;;;;;;;11.36;59.01;94880.78;5050589;28;20199;-73
2022/01/04 10:05:46;;;;;;;26.75;16.27;;;;;;;11.17;58.79;94874.72;5050280;28;20735;-75
2022/01/04 10:08:14;;;;;;;22.45;16.63;;;;;;;10.77;59.65;94877.97;5051518;28;20464;-73
2022/01/04 10:10:42;;;;;;;25.50;15.98;;;;;;;10.42;61.27;94874.16;5052060;28;20203;-73
2022/01/04 10:13:12;;;;;;;28.30;17.25;;;;;;;10.21;61.66;94879.13;5052297;28;20253;-73
2022/01/04 10:15:42;;;;;;;24.25;16.45;;;;;;;10.05;62.75;94872.91;5052078;28;20661;-73
2022/01/04 10:18:24;;;;;;;26.85;15.98;;;;;;;10.44;61.54;94860.53;5052204;28;20621;-73
2022/01/04 10:21:10;;;;;;;33.25;16.70;;;;;;;10.34;62.19;94853.31;5052254;28;20195;-73
2022/01/04 10:23:46;;;;;;;27.33;16.08;;;;;;;10.29;62.17;94861.09;5051924;28;20195;-73
2022/01/04 10:26:13;;;;;;;31.00;14.80;;;;;;;10.42;61.96;94853.84;5052082;28;20301;-73
2022/01/04 10:28:43;;;;;;;24.80;15.70;;;;;;;10.58;61.78;94849.88;5051322;28;20616;-73
2022/01/04 10:31:12;;;;;;;22.00;14.90;;;;;;;10.47;61.62;94844.34;5052026;28;20195;-74
2022/01/04 10:33:42;;;;;;;23.88;15.18;;;;;;;10.65;60.73;94838.56;5051794;28;20199;-74
2022/01/04 10:36:12;;;;;;;24.35;14.73;;;;;;;10.34;61.49;94833.81;5051605;28;20546;-74
2022/01/04 10:38:41;;;;;;;21.67;14.23;;;;;;;10.16;62.14;94829.34;5051544;28;20650;-74
2022/01/04 10:41:10;;;;;;;20.27;13.32;;;;;;;10.34;62.43;94828.75;5051643;28;20308;-72
2022/01/04 10:43:40;;;;;;;20.23;12.05;;;;;;;10.51;61.03;94821.31;5051421;28;20195;-72
2022/01/04 10:46:08;;;;;;;23.25;13.02;;;;;;;10.69;60.90;94824.88;5051296;28;20719;-74
2022/01/04 10:48:39;;;;;;;29.63;14.90;;;;;;;10.85;59.55;94827.69;5051360;28;20249;-73
2022/01/04 10:51:09;;;;;;;19.20;12.13;;;;;;;10.90;59.88;94818.97;5051321;28;20295;-74
2022/01/04 10:53:39;;;;;;;17.63;12.50;;;;;;;11.02;59.68;94814.31;5051334;28;20252;-74
2022/01/04 10:56:08;;;;;;;16.42;11.70;;;;;;;11.20;59.36;94816.13;5051500;28;20262;-74
2022/01/04 10:58:38;;;;;;;15.73;11.25;;;;;;;11.22;58.66;94805.00;5051279;28;20195;-73
2022/01/04 11:01:08;;;;;;;19.13;12.35;;;;;;;11.11;58.52;94812.25;5051193;28;20195;-74
2022/01/04 11:03:37;;;;;;;17.65;10.88;;;;;;;11.12;58.51;94802.91;5051183;28;20261;-73
2022/01/04 11:06:09;;;;;;;16.65;11.40;;;;;;;11.35;58.42;94810.44;5051099;28;20226;-75
2022/01/04 11:08:37;;;;;;;15.70;10.98;;;;;;;11.36;57.82;94807.00;5050918;28;20191;-73
2022/01/04 11:11:04;;;;;;;17.45;12.48;;;;;;;11.21;57.93;94803.34;5050161;28;20234;-72
2022/01/04 11:13:31;;;;;;;18.90;12.88;;;;;;;10.89;58.78;94802.06;5051254;28;20620;-73
2022/01/04 11:16:00;;;;;;;22.15;12.10;;;;;;;10.95;58.73;94795.09;5051151;28;20195;-73
2022/01/04 11:18:27;;;;;;;21.85;13.25;;;;;;;10.94;59.10;94793.44;5050959;28;20198;-73
2022/01/04 11:20:55;;;;;;;23.63;15.32;;;;;;;10.66;59.95;94789.41;5050819;28;20272;-72
2022/01/04 11:23:29;;;;;;;24.65;15.20;;;;;;;10.63;60.26;94789.56;5051197;28;20195;-73
2022/01/04 11:25:57;;;;;;;27.48;17.45;;;;;;;10.40;60.89;94782.78;5050873;28;20207;-73
2022/01/04 11:28:24;;;;;;;34.40;18.73;;;;;;;10.27;61.72;94786.66;5050922;28;20198;-73
2022/01/04 11:31:32;;;;;;;27.60;15.52;;;;;;;10.25;61.86;94778.28;5049567;28;20233;-74
2022/01/04 11:34:10;;;;;;;34.45;16.13;;;;;;;10.34;61.81;94772.03;5033491;28;20248;-72